SEA weather

Seattle Tacoma International Airport
Seattle, Washington, United States

Public forecast

Using degrees Fahrenheit for public forecast. Weather courtesy of forecast.io.

METAR (pilot weather report)

Retrieved 2018/12/13 17:53 UTC (11 minutes ago):

KSEA 131753Z 17008KT 6SM -RA FEW023 OVC034 09/04 A3008 RMK AO2 RAE1655B37 SLP192 P0001 60016 T00940039 10100 20072 53007

TAF (pilot weather forecast)

Retrieved 2018/12/13 18:51 UTC (0 seconds ago):

TAF KSEA 131748Z 1318/1424 18010KT P6SM -SHRA SCT020 OVC030 WS020/18040KT FM140200 18012KT P6SM VCSH BKN040 OVC070 FM140600 17011KT P6SM SCT035 BKN080 FM141200 15009KT P6SM VCSH SCT040 SCT100 FM142000 15010KT P6SM -SHRA BKN030 OVC080